Time;durP1;ratioP1;P1;durP2;ratioP2;P2;SDS_P1;SDS_P2;PMS_P1;PMS_P2;Temp;Humidity;BMP_temperature;BMP_pressure;BME280_temperature;BME280_humidity;BME280_pressure;Samples;Min_cycle;Max_cycle;Signal;HPM_P1;HPM_P2
2021/08/06 00:01:07;;;;;;;52.77;48.50;;;;;;;17.59;100.00;99760.75;1971893;73;31025;-74
2021/08/06 00:06:31;;;;;;;50.63;46.43;;;;;;;17.68;100.00;99748.19;1971907;73;31070;-74
2021/08/06 00:11:58;;;;;;;54.20;49.90;;;;;;;17.65;100.00;99750.91;1971971;73;30965;-74
2021/08/06 00:17:23;;;;;;;50.33;45.97;;;;;;;17.66;100.00;99759.56;1971981;73;33087;-77
2021/08/06 00:22:47;;;;;;;55.87;51.20;;;;;;;17.63;100.00;99754.06;1972135;73;30992;-78
2021/08/06 00:28:12;;;;;;;51.03;46.90;;;;;;;17.63;100.00;99761.08;1971932;73;31024;-74
2021/08/06 00:33:37;;;;;;;52.30;48.10;;;;;;;17.74;100.00;99768.41;1972052;73;31026;-73
2021/08/06 00:39:02;;;;;;;50.97;46.47;;;;;;;17.68;100.00;99768.43;1971893;73;31017;-75
2021/08/06 00:44:27;;;;;;;53.73;48.87;;;;;;;17.59;100.00;99764.96;1971886;73;32973;-74
2021/08/06 00:49:52;;;;;;;51.63;46.90;;;;;;;17.66;100.00;99760.38;1972172;73;31053;-74
2021/08/06 00:55:17;;;;;;;54.33;49.87;;;;;;;17.70;100.00;99757.67;1971897;73;31009;-77
2021/08/06 01:00:42;;;;;;;53.63;48.53;;;;;;;17.57;100.00;99751.85;1972099;73;32918;-77
2021/08/06 01:06:13;;;;;;;50.93;46.73;;;;;;;17.64;100.00;99754.30;1971981;73;30965;-77
2021/08/06 01:11:42;;;;;;;50.87;46.77;;;;;;;17.61;100.00;99751.39;1972146;73;30970;-74
2021/08/06 01:17:11;;;;;;;53.50;49.07;;;;;;;17.60;100.00;99755.37;1971926;73;30963;-74
2021/08/06 01:22:43;;;;;;;50.83;46.47;;;;;;;17.52;100.00;99748.71;1971877;73;30996;-76
2021/08/06 01:28:21;;;;;;;52.80;47.97;;;;;;;17.48;100.00;99746.39;1972129;73;33408;-74
2021/08/06 01:33:47;;;;;;;56.67;51.97;;;;;;;17.41;100.00;99743.40;1971885;73;30949;-77
2021/08/06 01:39:12;;;;;;;52.33;48.03;;;;;;;17.41;100.00;99737.78;1972112;73;33404;-75
2021/08/06 01:44:45;;;;;;;51.93;47.43;;;;;;;17.42;100.00;99741.37;1972202;73;33513;-74
2021/08/06 01:50:07;;;;;;;50.97;46.67;;;;;;;17.29;100.00;99742.02;1977913;72;30713;-74
2021/08/06 01:55:39;;;;;;;51.87;47.87;;;;;;;17.26;100.00;99732.92;1972122;73;32996;-75
2021/08/06 02:01:04;;;;;;;52.00;47.83;;;;;;;17.21;100.00;99736.80;1972157;73;30938;-74
2021/08/06 02:06:30;;;;;;;51.33;47.10;;;;;;;17.11;100.00;99734.52;1971875;73;31021;-73
2021/08/06 02:11:55;;;;;;;52.17;47.83;;;;;;;16.98;100.00;99722.28;1972120;73;31457;-74
2021/08/06 02:17:23;;;;;;;50.63;46.27;;;;;;;17.08;100.00;99723.98;1972070;73;31058;-73
2021/08/06 02:22:50;;;;;;;51.43;46.83;;;;;;;17.11;100.00;99727.50;2012830;71;31002;-74
2021/08/06 02:28:18;;;;;;;49.07;45.13;;;;;;;17.09;100.00;99724.22;1972122;73;33625;-74
2021/08/06 02:33:43;;;;;;;50.67;46.47;;;;;;;17.08;100.00;99726.78;1971957;73;30985;-74
2021/08/06 02:39:13;;;;;;;50.53;46.27;;;;;;;17.02;100.00;99724.02;1971932;73;31019;-74
2021/08/06 02:44:39;;;;;;;53.03;48.83;;;;;;;17.04;100.00;99723.64;1971897;73;30984;-74
2021/08/06 02:50:07;;;;;;;50.73;46.63;;;;;;;17.00;100.00;99720.73;1971919;73;31007;-74
2021/08/06 02:55:33;;;;;;;50.10;45.97;;;;;;;17.08;100.00;99714.16;1972000;73;33463;-77
2021/08/06 03:00:58;;;;;;;49.73;45.80;;;;;;;17.05;100.00;99712.08;1971936;73;31069;-74
2021/08/06 03:06:22;;;;;;;50.53;46.27;;;;;;;16.95;100.00;99708.94;1972129;73;31435;-74
2021/08/06 03:11:47;;;;;;;52.53;48.33;;;;;;;17.00;100.00;99702.50;1972005;73;30994;-77
2021/08/06 03:17:11;;;;;;;50.07;45.97;;;;;;;17.02;100.00;99693.73;1972072;73;30960;-78
2021/08/06 03:22:36;;;;;;;52.17;47.73;;;;;;;16.96;100.00;99688.14;1971908;73;31055;-77
2021/08/06 03:28:02;;;;;;;50.90;46.83;;;;;;;16.90;100.00;99684.76;1972023;73;32986;-78
2021/08/06 03:33:26;;;;;;;51.73;47.63;;;;;;;17.01;100.00;99685.09;1971974;73;33113;-77
2021/08/06 03:38:51;;;;;;;51.33;47.10;;;;;;;16.88;100.00;99680.11;1971852;73;32914;-73
2021/08/06 03:44:18;;;;;;;51.10;47.10;;;;;;;16.92;100.00;99679.63;1971894;73;31049;-77
2021/08/06 03:49:42;;;;;;;49.47;45.50;;;;;;;17.03;100.00;99675.74;1971881;73;33051;-74
2021/08/06 03:55:08;;;;;;;51.70;47.90;;;;;;;17.07;100.00;99676.05;1971882;73;32901;-74
2021/08/06 04:00:43;;;;;;;50.50;46.80;;;;;;;17.07;100.00;99673.85;1951518;73;39624;-74
2021/08/06 04:06:08;;;;;;;51.33;47.63;;;;;;;17.06;100.00;99673.03;1972110;73;31541;-74
2021/08/06 04:11:32;;;;;;;50.93;47.20;;;;;;;16.98;100.00;99666.17;1971936;73;30972;-75
2021/08/06 04:16:57;;;;;;;51.27;47.67;;;;;;;16.99;100.00;99664.39;1971942;72;31051;-74
2021/08/06 04:22:21;;;;;;;49.23;45.73;;;;;;;17.01;100.00;99669.08;1971778;73;33049;-74
2021/08/06 04:27:46;;;;;;;49.33;45.50;;;;;;;17.00;100.00;99659.60;1972199;73;33478;-74
2021/08/06 04:33:11;;;;;;;49.83;46.23;;;;;;;17.01;100.00;99662.06;1972160;73;33430;-73
2021/08/06 04:38:35;;;;;;;51.53;47.83;;;;;;;17.08;100.00;99666.46;1971936;73;30970;-74
2021/08/06 04:44:00;;;;;;;49.63;46.10;;;;;;;17.04;100.00;99666.95;1971871;72;33119;-74
2021/08/06 04:49:24;;;;;;;50.40;46.60;;;;;;;17.17;100.00;99665.73;1972210;73;33524;-74
2021/08/06 04:54:48;;;;;;;51.33;47.53;;;;;;;17.17;100.00;99667.70;1971936;73;31038;-75
2021/08/06 05:00:15;;;;;;;51.30;47.67;;;;;;;17.09;100.00;99666.70;1971882;73;32995;-74
2021/08/06 05:05:39;;;;;;;51.20;47.60;;;;;;;17.07;100.00;99677.45;1972109;73;31459;-74
2021/08/06 05:11:04;;;;;;;52.37;48.47;;;;;;;17.25;100.00;99677.38;1971911;73;30947;-74
2021/08/06 05:16:29;;;;;;;53.63;49.67;;;;;;;17.22;100.00;99680.91;1972148;73;31117;-74
2021/08/06 05:21:53;;;;;;;52.80;49.00;;;;;;;17.27;100.00;99689.07;1953936;73;31010;-74
2021/08/06 05:27:16;;;;;;;49.03;45.03;;;;;;;17.34;100.00;99680.61;1972058;73;32983;-73
2021/08/06 05:32:42;;;;;;;51.37;47.57;;;;;;;17.36;100.00;99690.91;1971848;73;33443;-78
2021/08/06 05:38:07;;;;;;;52.00;48.07;;;;;;;17.34;100.00;99696.05;1972108;73;31051;-74
2021/08/06 05:43:33;;;;;;;52.73;48.60;;;;;;;17.39;100.00;99695.79;1971934;73;30982;-74
2021/08/06 05:49:00;;;;;;;53.60;49.30;;;;;;;17.48;100.00;99695.05;1971949;72;30972;-74
2021/08/06 05:54:26;;;;;;;52.70;48.50;;;;;;;17.41;100.00;99697.08;1972103;73;31501;-74
2021/08/06 05:59:50;;;;;;;50.20;45.63;;;;;;;17.46;100.00;99692.58;1971904;73;31063;-74
2021/08/06 06:05:15;;;;;;;48.30;44.43;;;;;;;17.51;100.00;99693.73;1971869;73;30983;-76
2021/08/06 06:10:40;;;;;;;46.63;42.73;;;;;;;17.67;100.00;99698.02;1972109;73;31465;-75
2021/08/06 06:16:11;;;;;;;51.17;47.30;;;;;;;17.69;100.00;99692.84;1972172;73;30972;-74
2021/08/06 06:21:37;;;;;;;50.67;46.77;;;;;;;17.78;100.00;99696.87;1957395;73;30990;-74
2021/08/06 06:27:07;;;;;;;49.83;45.83;;;;;;;17.73;100.00;99697.38;1971993;73;31054;-74
2021/08/06 06:32:31;;;;;;;47.10;42.80;;;;;;;17.81;100.00;99694.73;1972074;73;33500;-74
2021/08/06 06:38:03;;;;;;;48.70;44.63;;;;;;;17.99;100.00;99689.81;1972176;73;31058;-74
2021/08/06 06:43:27;;;;;;;46.40;42.80;;;;;;;18.08;100.00;99696.66;1972196;73;33468;-74
2021/08/06 06:48:52;;;;;;;48.00;44.03;;;;;;;18.24;100.00;99707.29;1971935;73;31004;-74
2021/08/06 06:54:16;;;;;;;46.03;42.30;;;;;;;18.19;100.00;99714.00;1972125;73;31452;-74
2021/08/06 06:59:41;;;;;;;45.83;42.13;;;;;;;18.26;100.00;99720.41;1972166;73;31605;-75
2021/08/06 07:05:06;;;;;;;46.53;42.90;;;;;;;18.33;100.00;99731.81;1972152;73;31574;-74
2021/08/06 07:10:32;;;;;;;46.70;43.07;;;;;;;18.36;100.00;99722.64;1971909;73;30978;-75
2021/08/06 07:15:56;;;;;;;43.57;39.87;;;;;;;18.46;100.00;99728.30;1971885;73;31075;-74
2021/08/06 07:21:23;;;;;;;49.87;46.17;;;;;;;18.51;100.00;99742.09;1967126;71;31086;-74
2021/08/06 07:26:48;;;;;;;46.60;43.00;;;;;;;18.61;100.00;99747.20;1972041;73;30956;-78
2021/08/06 07:32:12;;;;;;;50.30;46.60;;;;;;;18.69;100.00;99750.98;1971896;73;31060;-78
2021/08/06 07:37:40;;;;;;;50.23;46.53;;;;;;;18.74;100.00;99749.30;1972033;73;33401;-78
2021/08/06 07:43:06;;;;;;;48.20;44.43;;;;;;;18.78;100.00;99741.17;1972133;73;33482;-76
2021/08/06 07:48:24;;;;;;;45.90;42.63;;;;;;;18.89;100.00;99739.98;1977693;72;29989;-74
2021/08/06 07:53:48;;;;;;;46.67;43.30;;;;;;;19.13;100.00;99751.56;1971927;73;31061;-74
2021/08/06 07:59:14;;;;;;;45.90;42.40;;;;;;;19.31;100.00;99760.62;1971910;73;31078;-75
2021/08/06 08:04:39;;;;;;;44.93;41.83;;;;;;;19.43;100.00;99762.50;1971938;73;30958;-76
2021/08/06 08:10:04;;;;;;;47.13;43.80;;;;;;;19.38;100.00;99762.16;1972153;73;31578;-75
2021/08/06 08:15:48;;;;;;;47.63;44.13;;;;;;;19.42;100.00;99776.34;2016254;71;30904;-76
2021/08/06 08:21:13;;;;;;;50.20;46.50;;;;;;;19.20;100.00;99790.56;1967879;71;31532;-74
2021/08/06 08:26:38;;;;;;;49.43;45.83;;;;;;;19.15;100.00;99806.33;1972203;73;31532;-74
2021/08/06 08:32:03;;;;;;;50.50;46.83;;;;;;;19.00;100.00;99809.39;1972004;72;31004;-75
2021/08/06 08:37:28;;;;;;;51.17;47.37;;;;;;;19.15;100.00;99811.95;1972147;73;33518;-76
2021/08/06 08:42:55;;;;;;;49.40;45.87;;;;;;;19.29;100.00;99813.69;1972178;73;31503;-75
2021/08/06 08:48:20;;;;;;;48.27;44.67;;;;;;;19.42;100.00;99803.10;1972005;72;30956;-74
2021/08/06 08:53:47;;;;;;;45.17;41.87;;;;;;;19.59;100.00;99801.28;1972151;73;31509;-75
2021/08/06 08:59:11;;;;;;;44.23;40.93;;;;;;;19.86;100.00;99791.75;1971908;73;31039;-78
2021/08/06 09:04:35;;;;;;;44.90;41.80;;;;;;;19.79;100.00;99793.03;1971862;72;31054;-78
2021/08/06 09:10:11;;;;;;;39.13;36.13;;;;;;;19.63;100.00;99795.13;1971988;73;31075;-78
2021/08/06 09:15:52;;;;;;;43.17;40.07;;;;;;;19.78;100.00;99794.80;1972010;72;31055;-75
2021/08/06 09:21:25;;;;;;;46.53;43.43;;;;;;;20.27;100.00;99794.93;1971877;73;31074;-75
2021/08/06 09:26:48;;;;;;;49.40;46.33;;;;;;;20.40;100.00;99801.45;1972071;73;33520;-78
2021/08/06 09:32:14;;;;;;;40.83;38.13;;;;;;;20.45;100.00;99788.42;1971917;73;31016;-78
2021/08/06 09:37:40;;;;;;;39.97;36.97;;;;;;;20.65;100.00;99788.35;1972119;73;31458;-78
2021/08/06 09:43:16;;;;;;;42.13;39.43;;;;;;;20.55;100.00;99782.74;1972056;73;31439;-78
2021/08/06 09:48:40;;;;;;;39.00;36.40;;;;;;;20.92;100.00;99792.00;1971893;73;30969;-75
2021/08/06 09:54:24;;;;;;;39.97;37.40;;;;;;;21.09;100.00;99801.34;1972125;73;31531;-74
2021/08/06 10:00:02;;;;;;;40.03;37.60;;;;;;;21.01;100.00;99803.22;1972206;73;31497;-75
2021/08/06 10:05:32;;;;;;;40.10;37.47;;;;;;;20.94;100.00;99797.47;1972066;73;31030;-78
2021/08/06 10:10:57;;;;;;;40.90;38.30;;;;;;;20.93;100.00;99797.25;1972138;72;31431;-75
2021/08/06 10:16:25;;;;;;;38.67;36.27;;;;;;;21.05;100.00;99820.23;1971949;73;31028;-76
2021/08/06 10:21:51;;;;;;;39.10;36.40;;;;;;;20.85;100.00;99820.92;1964483;71;30971;-77
2021/08/06 10:27:15;;;;;;;40.00;37.20;;;;;;;21.08;100.00;99826.52;1972003;73;31054;-74
2021/08/06 10:33:09;;;;;;;38.60;36.20;;;;;;;21.04;100.00;99820.01;1972169;73;31543;-74
2021/08/06 10:38:46;;;;;;;38.83;36.30;;;;;;;21.10;100.00;99830.58;1971971;72;30963;-75
2021/08/06 10:44:11;;;;;;;39.77;36.80;;;;;;;20.94;100.00;99837.59;1971927;73;30962;-75
2021/08/06 10:50:14;;;;;;;39.63;36.73;;;;;;;20.85;100.00;99839.27;1972080;73;31501;-77
2021/08/06 10:55:39;;;;;;;39.67;36.77;;;;;;;21.09;100.00;99853.58;1972009;73;30991;-78
2021/08/06 11:01:12;;;;;;;38.10;35.43;;;;;;;21.03;100.00;99840.96;1971982;73;30996;-78
2021/08/06 11:06:38;;;;;;;40.70;37.90;;;;;;;21.20;100.00;99827.73;1972090;73;31543;-77
2021/08/06 11:12:09;;;;;;;37.80;35.33;;;;;;;21.23;100.00;99834.03;1971904;73;31054;-78
2021/08/06 11:17:52;;;;;;;37.53;35.33;;;;;;;21.02;100.00;99832.27;1972092;73;31450;-78
2021/08/06 11:23:18;;;;;;;34.98;33.05;;;;;;;21.16;100.00;99839.58;1971940;73;30910;-74
2021/08/06 11:28:42;;;;;;;31.80;30.00;;;;;;;21.28;100.00;99842.99;1972164;73;31421;-75
2021/08/06 11:34:14;;;;;;;33.03;31.07;;;;;;;21.57;100.00;99828.65;1972133;73;31476;-75
2021/08/06 11:39:38;;;;;;;33.33;31.23;;;;;;;21.51;100.00;99838.68;1971950;73;31133;-75
2021/08/06 11:45:05;;;;;;;32.50;30.55;;;;;;;21.66;100.00;99843.31;1971937;73;31120;-75
2021/08/06 11:50:43;;;;;;;31.27;29.47;;;;;;;21.74;100.00;99856.33;1971924;72;31001;-75
2021/08/06 11:56:15;;;;;;;31.80;29.73;;;;;;;21.63;100.00;99853.16;1972072;72;31008;-78
2021/08/06 12:01:40;;;;;;;32.80;30.60;;;;;;;21.52;100.00;99855.04;1971882;73;31025;-78
2021/08/06 12:07:05;;;;;;;30.70;29.10;;;;;;;21.88;100.00;99859.13;1971929;73;31427;-76
2021/08/06 12:12:31;;;;;;;29.27;27.60;;;;;;;21.78;100.00;99868.50;1972199;73;31447;-78
2021/08/06 12:15:18;;;;;;;30.50;28.90;;;;;;;21.83;100.00;99868.76;1934987;74;24638;-78
2021/08/06 12:20:45;;;;;;;27.10;25.57;;;;;;;21.93;100.00;99859.63;1970521;71;31435;-75
2021/08/06 12:26:17;;;;;;;26.27;24.80;;;;;;;21.95;100.00;99850.78;1972153;73;33478;-75
2021/08/06 12:31:52;;;;;;;24.37;22.80;;;;;;;22.06;100.00;99850.29;1971898;73;30969;-75
2021/08/06 12:37:33;;;;;;;22.73;21.33;;;;;;;22.38;100.00;99843.58;1971924;73;30956;-78
2021/08/06 12:42:58;;;;;;;22.40;21.00;;;;;;;22.26;100.00;99855.95;1972205;73;31468;-76
2021/08/06 12:48:25;;;;;;;22.60;21.20;;;;;;;22.38;100.00;99852.84;1972200;73;31018;-75
2021/08/06 12:53:49;;;;;;;19.95;18.80;;;;;;;22.10;100.00;99852.55;1971904;73;30979;-75
2021/08/06 12:59:22;;;;;;;18.93;17.73;;;;;;;22.26;100.00;99850.30;1971907;73;31065;-76
2021/08/06 13:04:47;;;;;;;18.32;16.87;;;;;;;22.20;100.00;99855.52;1971944;73;30990;-78
2021/08/06 13:10:27;;;;;;;17.77;16.67;;;;;;;22.19;100.00;99854.48;1972048;73;31561;-78
2021/08/06 13:15:52;;;;;;;17.60;16.30;;;;;;;22.18;100.00;99858.50;1971960;73;31059;-78
2021/08/06 13:21:18;;;;;;;17.98;16.85;;;;;;;22.22;100.00;99860.17;1972084;73;30987;-78
2021/08/06 13:26:42;;;;;;;17.35;16.45;;;;;;;22.14;100.00;99855.64;1971892;73;30972;-78
2021/08/06 13:32:10;;;;;;;15.65;14.73;;;;;;;22.02;100.00;99853.67;1971936;72;30967;-76
2021/08/06 13:37:34;;;;;;;17.87;16.67;;;;;;;22.10;100.00;99861.86;1972127;73;31570;-78
2021/08/06 13:43:01;;;;;;;15.45;14.45;;;;;;;22.11;100.00;99871.98;1971987;73;31033;-75
2021/08/06 13:48:26;;;;;;;15.90;14.77;;;;;;;22.30;100.00;99869.54;1971964;73;30993;-78
2021/08/06 13:53:51;;;;;;;14.27;13.33;;;;;;;22.48;100.00;99876.20;1971935;73;31092;-78
2021/08/06 13:59:15;;;;;;;14.70;13.90;;;;;;;22.47;100.00;99890.14;1971923;73;31096;-77
2021/08/06 14:04:39;;;;;;;15.30;14.40;;;;;;;22.27;100.00;99883.66;1971929;73;31035;-78
2021/08/06 14:10:06;;;;;;;17.47;16.50;;;;;;;22.19;100.00;99901.97;1972099;73;31091;-75
2021/08/06 14:15:30;;;;;;;18.73;17.32;;;;;;;22.32;100.00;99916.66;1972180;73;31504;-75
2021/08/06 14:20:55;;;;;;;21.20;19.98;;;;;;;22.49;100.00;99915.23;1972142;73;31063;-78
2021/08/06 14:26:20;;;;;;;22.60;21.23;;;;;;;22.27;100.00;99935.39;1972204;72;30959;-76
2021/08/06 14:31:44;;;;;;;25.20;23.43;;;;;;;21.87;100.00;99954.44;1972198;73;31543;-74
2021/08/06 14:37:09;;;;;;;24.12;22.73;;;;;;;21.90;100.00;99939.55;1972151;73;31537;-75
2021/08/06 14:42:33;;;;;;;23.40;22.10;;;;;;;22.15;100.00;99938.48;1972050;73;31099;-75
2021/08/06 14:47:59;;;;;;;21.50;20.40;;;;;;;22.00;100.00;99930.41;1971897;73;31026;-76
2021/08/06 14:53:24;;;;;;;23.90;22.55;;;;;;;21.73;100.00;99935.29;1972175;73;31508;-78
2021/08/06 14:58:48;;;;;;;34.50;32.10;;;;;;;21.09;100.00;99970.17;1971953;73;30955;-76
2021/08/06 15:04:12;;;;;;;44.70;41.33;;;;;;;19.89;100.00;100000.18;1972151;73;31496;-78
2021/08/06 15:09:43;;;;;;;65.40;61.10;;;;;;;19.51;100.00;99994.66;1972216;73;30971;-78
2021/08/06 15:15:11;;;;;;;49.20;45.60;;;;;;;19.48;100.00;100007.25;1971918;73;31033;-75
2021/08/06 15:20:36;;;;;;;43.93;40.67;;;;;;;19.50;100.00;100009.94;1972139;73;30965;-78
2021/08/06 15:26:01;;;;;;;41.80;38.70;;;;;;;20.09;100.00;99999.59;1971921;73;30974;-78
2021/08/06 15:31:25;;;;;;;41.83;38.63;;;;;;;19.89;100.00;100010.86;1971987;73;31040;-78
2021/08/06 15:36:49;;;;;;;41.27;37.97;;;;;;;20.03;100.00;100010.34;1971927;73;31023;-78
2021/08/06 15:42:14;;;;;;;41.67;38.67;;;;;;;20.11;100.00;100013.53;1972159;73;31015;-75
2021/08/06 15:47:41;;;;;;;41.17;38.17;;;;;;;20.03;100.00;99999.66;1971922;72;30989;-76
2021/08/06 15:53:10;;;;;;;42.50;39.50;;;;;;;20.11;100.00;100016.35;1972139;73;31158;-78
2021/08/06 15:58:34;;;;;;;42.17;39.17;;;;;;;20.16;100.00;99996.33;1971975;73;31104;-78
2021/08/06 16:03:59;;;;;;;42.57;39.67;;;;;;;20.08;100.00;99994.55;1972144;73;33357;-78
2021/08/06 16:09:23;;;;;;;42.97;39.83;;;;;;;19.96;100.00;100003.97;1972080;73;30979;-76
2021/08/06 16:14:48;;;;;;;43.47;39.97;;;;;;;19.95;100.00;100014.19;1971913;73;31038;-78
2021/08/06 16:20:14;;;;;;;40.90;38.10;;;;;;;19.42;100.00;100023.59;1972077;73;30952;-78
2021/08/06 16:25:39;;;;;;;41.80;38.87;;;;;;;19.10;100.00;100005.88;1972153;73;30937;-78
2021/08/06 16:31:04;;;;;;;41.37;38.57;;;;;;;19.12;100.00;100001.89;1972129;73;30931;-76
2021/08/06 16:36:29;;;;;;;45.00;42.03;;;;;;;19.00;100.00;99999.38;1971941;73;30962;-78
2021/08/06 16:41:54;;;;;;;48.67;45.27;;;;;;;18.67;100.00;100014.35;1946136;73;31073;-78
2021/08/06 16:47:19;;;;;;;52.53;48.93;;;;;;;18.29;100.00;100028.91;1972011;73;31006;-78
2021/08/06 16:52:45;;;;;;;53.63;49.90;;;;;;;18.24;100.00;100015.68;1972150;73;33352;-78
2021/08/06 16:58:15;;;;;;;47.37;43.77;;;;;;;18.42;100.00;100039.52;1971906;73;31055;-78
2021/08/06 17:03:37;;;;;;;50.57;46.87;;;;;;;18.25;100.00;100037.00;1961599;72;31181;-71
2021/08/06 17:09:02;;;;;;;48.83;45.13;;;;;;;18.15;100.00;100042.53;1971824;73;31058;-74
2021/08/06 17:14:46;;;;;;;46.77;43.17;;;;;;;18.15;100.00;100038.31;2016136;71;30948;-73
2021/08/06 17:20:11;;;;;;;49.53;46.13;;;;;;;18.41;100.00;100037.88;1971904;72;30979;-74
2021/08/06 17:25:36;;;;;;;47.67;44.07;;;;;;;18.54;100.00;100034.69;1972069;72;31071;-73
2021/08/06 17:31:01;;;;;;;49.67;46.07;;;;;;;18.26;100.00;100040.05;1971837;73;31035;-74
2021/08/06 17:36:32;;;;;;;46.50;43.10;;;;;;;18.33;100.00;100026.20;1971828;73;31181;-73
2021/08/06 17:41:56;;;;;;;45.53;41.77;;;;;;;18.44;100.00;100028.13;1971835;73;30958;-74
2021/08/06 17:47:21;;;;;;;45.17;41.67;;;;;;;18.35;100.00;100028.90;1971883;73;30999;-73
2021/08/06 17:52:48;;;;;;;47.83;44.13;;;;;;;18.43;100.00;100032.14;1951798;73;31160;-73
2021/08/06 17:58:12;;;;;;;43.93;40.50;;;;;;;18.35;100.00;100030.30;1972075;73;30952;-72
2021/08/06 18:03:39;;;;;;;45.23;41.57;;;;;;;18.43;100.00;100032.73;1972094;73;30991;-74
2021/08/06 18:09:04;;;;;;;48.10;44.17;;;;;;;18.42;100.00;100024.88;1971845;73;31127;-75
2021/08/06 18:14:29;;;;;;;45.93;42.07;;;;;;;18.39;100.00;100020.56;1972078;73;31487;-73
2021/08/06 18:20:14;;;;;;;43.97;40.20;;;;;;;18.38;100.00;100020.33;2016266;71;30954;-74
2021/08/06 18:25:58;;;;;;;45.97;42.23;;;;;;;18.37;100.00;100024.30;2016087;71;30954;-72
2021/08/06 18:31:23;;;;;;;42.50;39.03;;;;;;;18.35;100.00;100019.06;1971798;73;30979;-74
2021/08/06 18:36:48;;;;;;;43.47;39.73;;;;;;;18.35;100.00;100028.08;1971899;73;30974;-74
2021/08/06 18:42:13;;;;;;;45.50;41.40;;;;;;;18.37;100.00;100030.75;1972028;73;33382;-74
2021/08/06 18:47:38;;;;;;;42.33;39.03;;;;;;;18.37;100.00;100032.73;1972052;73;33508;-74
2021/08/06 18:53:06;;;;;;;44.57;40.67;;;;;;;18.45;100.00;100036.80;1971773;73;31035;-73
2021/08/06 18:59:24;;;;;;;44.37;40.60;;;;;;;18.32;100.00;100040.84;1971911;73;31130;-72
2021/08/06 19:04:45;;;;;;;43.10;39.80;;;;;;;18.11;100.00;100038.21;1971865;73;31104;-74
2021/08/06 19:10:15;;;;;;;43.37;39.63;;;;;;;18.11;100.00;100040.20;1971833;73;30990;-73
2021/08/06 19:15:40;;;;;;;43.70;40.07;;;;;;;17.98;100.00;100046.44;1972144;72;31067;-73
2021/08/06 19:21:05;;;;;;;43.90;39.80;;;;;;;17.90;100.00;100042.36;1968286;71;31089;-72
2021/08/06 19:27:10;;;;;;;43.00;39.30;;;;;;;17.82;100.00;100040.50;1971824;73;31063;-74
2021/08/06 19:33:22;;;;;;;42.00;38.13;;;;;;;17.74;100.00;100043.67;2001604;70;30598;-74
2021/08/06 19:39:04;;;;;;;42.37;39.03;;;;;;;17.75;100.00;100046.72;2061126;69;31022;-74
2021/08/06 19:41:54;;;;;;;43.67;39.83;;;;;;;17.60;100.00;100045.44;1950642;73;24124;-74
2021/08/06 19:44:26;;;;;;;42.13;38.40;;;;;;;17.61;100.00;100050.47;2030568;71;24082;-73
2021/08/06 19:46:56;;;;;;;43.10;39.60;;;;;;;17.58;100.00;100039.37;2030691;70;24096;-72
2021/08/06 19:49:26;;;;;;;42.97;39.00;;;;;;;17.58;100.00;100039.95;2030581;71;24108;-72
2021/08/06 19:51:59;;;;;;;43.20;39.57;;;;;;;17.44;100.00;100037.45;2030634;71;26636;-73
2021/08/06 19:54:31;;;;;;;43.67;40.13;;;;;;;17.37;100.00;100049.04;2030554;70;24186;-74
2021/08/06 20:00:17;;;;;;;44.40;40.63;;;;;;;17.49;100.00;100051.27;1971823;73;31037;-74
2021/08/06 20:05:43;;;;;;;43.70;40.10;;;;;;;17.47;100.00;100048.55;1972000;73;31464;-73
2021/08/06 20:11:08;;;;;;;44.87;40.83;;;;;;;17.45;100.00;100055.13;1972047;73;31461;-74
2021/08/06 20:16:32;;;;;;;46.47;42.43;;;;;;;17.44;100.00;100071.15;1971832;73;31073;-74
2021/08/06 20:21:57;;;;;;;45.67;41.90;;;;;;;17.35;100.00;100070.44;1963856;71;31063;-71
2021/08/06 20:27:21;;;;;;;44.33;40.47;;;;;;;17.47;100.00;100074.65;1971858;73;30964;-73
2021/08/06 20:32:46;;;;;;;43.97;40.57;;;;;;;17.25;100.00;100066.09;1972060;73;30961;-74
2021/08/06 20:38:10;;;;;;;45.53;41.80;;;;;;;17.13;100.00;100071.69;1971798;73;31066;-72
2021/08/06 20:43:37;;;;;;;46.10;42.30;;;;;;;16.98;100.00;100076.58;1971818;73;32935;-72
2021/08/06 20:49:01;;;;;;;45.80;41.83;;;;;;;16.97;100.00;100076.33;1972013;73;31515;-74
2021/08/06 20:54:26;;;;;;;44.10;40.30;;;;;;;16.88;100.00;100082.62;1971867;73;32922;-73
2021/08/06 20:59:51;;;;;;;47.03;42.97;;;;;;;16.92;100.00;100072.92;1971844;72;31040;-72
2021/08/06 21:05:21;;;;;;;46.23;42.13;;;;;;;16.75;100.00;100070.54;1971979;73;32989;-72
2021/08/06 21:10:46;;;;;;;45.33;41.53;;;;;;;16.67;100.00;100077.06;1971852;73;33004;-72
2021/08/06 21:16:11;;;;;;;45.60;41.60;;;;;;;16.64;100.00;100075.53;1971849;73;31062;-74
2021/08/06 21:21:37;;;;;;;46.40;42.30;;;;;;;16.60;100.00;100072.56;1971767;71;32939;-73
2021/08/06 21:27:01;;;;;;;45.53;41.60;;;;;;;16.56;100.00;100077.20;1972024;73;32998;-73
2021/08/06 21:32:29;;;;;;;44.80;40.87;;;;;;;16.51;100.00;100079.41;1971821;73;32927;-72
2021/08/06 21:37:53;;;;;;;45.50;41.60;;;;;;;16.54;100.00;100073.94;1971826;73;33013;-72
2021/08/06 21:43:19;;;;;;;43.77;39.57;;;;;;;16.43;100.00;100074.70;1972037;73;33458;-72
2021/08/06 21:48:43;;;;;;;45.00;41.17;;;;;;;16.40;100.00;100088.80;1971870;73;30963;-74
2021/08/06 21:54:08;;;;;;;44.67;40.87;;;;;;;16.23;100.00;100081.36;1971826;73;32932;-71
2021/08/06 21:59:32;;;;;;;44.00;40.20;;;;;;;16.33;100.00;100076.76;1971793;73;33016;-74
2021/08/06 22:04:58;;;;;;;45.53;41.83;;;;;;;16.39;100.00;100071.16;1971811;73;32909;-73
2021/08/06 22:10:42;;;;;;;46.13;42.40;;;;;;;16.25;100.00;100067.02;2015964;71;31400;-72
2021/08/06 22:16:08;;;;;;;46.67;43.07;;;;;;;16.29;100.00;100074.98;1972030;73;33613;-73
2021/08/06 22:21:32;;;;;;;44.73;41.13;;;;;;;16.21;100.00;100075.88;1971849;73;33506;-73
2021/08/06 22:26:57;;;;;;;47.60;43.23;;;;;;;16.15;100.00;100077.22;1972024;73;33475;-73
2021/08/06 22:32:21;;;;;;;45.93;42.40;;;;;;;16.20;100.00;100077.85;1971998;73;33408;-73
2021/08/06 22:37:46;;;;;;;46.63;42.90;;;;;;;16.21;100.00;100071.67;1971987;73;32914;-73
2021/08/06 22:43:11;;;;;;;47.63;43.47;;;;;;;16.12;100.00;100070.91;1971830;73;33023;-72
2021/08/06 22:48:36;;;;;;;47.37;43.13;;;;;;;16.00;100.00;100070.84;1972063;73;31579;-73
2021/08/06 22:54:00;;;;;;;48.07;44.00;;;;;;;15.94;100.00;100068.23;1971784;73;32983;-73
2021/08/06 22:59:25;;;;;;;51.03;46.70;;;;;;;15.99;100.00;100079.83;1971735;73;32894;-72
2021/08/06 23:04:51;;;;;;;48.83;44.83;;;;;;;15.86;100.00;100072.50;1971993;73;33444;-72
2021/08/06 23:10:15;;;;;;;45.77;41.57;;;;;;;15.80;100.00;100078.04;1972022;73;31512;-73
2021/08/06 23:15:40;;;;;;;47.47;43.47;;;;;;;15.77;100.00;100074.52;1971786;73;33008;-73
2021/08/06 23:21:04;;;;;;;46.83;42.53;;;;;;;15.76;100.00;100074.28;1968524;71;30990;-74
2021/08/06 23:26:28;;;;;;;46.27;42.37;;;;;;;15.76;100.00;100072.30;1972017;73;33494;-73
2021/08/06 23:31:53;;;;;;;51.00;46.50;;;;;;;15.65;100.00;100072.46;1972034;73;31516;-73
2021/08/06 23:37:17;;;;;;;48.70;44.93;;;;;;;15.55;100.00;100070.61;1972029;73;33377;-74
2021/08/06 23:42:42;;;;;;;48.00;43.77;;;;;;;15.60;100.00;100071.25;1971859;73;32985;-74
2021/08/06 23:48:08;;;;;;;47.63;43.33;;;;;;;15.51;100.00;100068.25;1972019;73;33523;-73
2021/08/06 23:53:33;;;;;;;48.63;44.57;;;;;;;15.52;100.00;100081.09;1972019;73;33571;-73
2021/08/06 23:58:57;;;;;;;51.43;47.13;;;;;;;15.46;100.00;100059.42;1971831;73;32893;-73
